Time,TemperatureF,DewpointF,PressureIn,WindDirection,WindDirectionDegrees,WindSpeedMPH,WindSpeedGustMPH,Humidity,HourlyPrecipIn,Conditions,Clouds,dailyrainin,SoftwareType,DateUTC
2013-01-25 00:02:00,58.3,44.4,30.19,NE,42,5.0,5.0,60,0.00,,,0.67,meteohub,2013-01-25 08:02:00,
2013-01-25 00:22:00,58.5,45.9,30.19,North,11,5.0,5.0,63,0.00,,,0.00,meteohub,2013-01-25 08:22:00,
2013-01-25 00:42:00,58.6,46.9,30.19,North,3,0.0,5.0,65,0.00,,,0.00,meteohub,2013-01-25 08:42:00,
2013-01-25 01:02:00,58.5,47.1,30.19,North,0,3.0,0.0,66,0.00,,,0.00,meteohub,2013-01-25 09:02:00,
2013-01-25 01:22:00,58.5,47.5,30.19,WNW,288,3.0,4.0,67,0.00,,,0.00,meteohub,2013-01-25 09:22:00,
2013-01-25 01:42:00,58.5,48.0,30.19,West,260,0.0,4.0,68,0.04,,,0.04,meteohub,2013-01-25 09:42:00,
2013-01-25 02:02:00,58.5,48.0,30.19,WNW,286,3.0,5.0,68,0.04,,,0.04,meteohub,2013-01-25 10:02:00,
2013-01-25 02:22:00,58.6,48.6,30.16,NNW,346,5.0,6.0,69,0.04,,,0.04,meteohub,2013-01-25 10:22:00,
2013-01-25 02:42:00,58.6,48.2,30.13,North,5,4.0,5.0,68,0.00,,,0.04,meteohub,2013-01-25 10:42:00,
2013-01-25 03:02:00,58.5,47.5,30.13,North,5,2.0,3.0,67,0.00,,,0.04,meteohub,2013-01-25 11:02:00,
2013-01-25 03:22:00,58.3,47.3,30.13,North,357,3.0,6.0,67,0.00,,,0.04,meteohub,2013-01-25 11:22:00,
2013-01-25 03:42:00,58.3,47.8,30.13,NE,36,3.0,4.0,68,0.00,,,0.04,meteohub,2013-01-25 11:42:00,
2013-01-25 04:02:00,58.3,48.2,30.13,NNE,24,0.0,5.0,69,0.00,,,0.04,meteohub,2013-01-25 12:02:00,
2013-01-25 04:22:00,58.5,48.7,30.13,NE,37,0.0,4.0,70,0.00,,,0.04,meteohub,2013-01-25 12:22:00,
2013-01-25 04:42:00,58.5,48.7,30.13,NNW,344,4.0,0.0,70,0.00,,,0.04,meteohub,2013-01-25 12:42:00,
2013-01-25 05:02:00,58.5,49.1,30.13,West,272,0.0,4.0,71,0.04,,,0.08,meteohub,2013-01-25 13:02:00,
2013-01-25 05:22:00,58.5,49.5,30.13,NW,310,3.0,5.0,72,0.04,,,0.08,meteohub,2013-01-25 13:22:00,
2013-01-25 05:42:00,58.3,49.6,30.13,NNW,334,0.0,5.0,73,0.04,,,0.08,meteohub,2013-01-25 13:42:00,
2013-01-25 06:02:00,58.1,49.5,30.16,NNW,338,0.0,0.0,73,0.00,,,0.08,meteohub,2013-01-25 14:02:00,
2013-01-25 06:22:00,58.1,49.8,30.16,SE,126,3.0,0.0,74,0.00,,,0.08,meteohub,2013-01-25 14:22:00,
2013-01-25 06:42:00,58.3,50.0,30.16,SE,128,0.0,5.0,74,0.00,,,0.08,meteohub,2013-01-25 14:42:00,
2013-01-25 07:02:00,58.5,50.2,30.16,NE,55,2.0,4.0,74,0.04,,,0.12,meteohub,2013-01-25 15:02:00,
2013-01-25 07:22:00,58.5,50.5,30.16,East,83,3.0,4.0,75,0.04,,,0.12,meteohub,2013-01-25 15:22:00,
2013-01-25 07:42:00,58.8,50.9,30.16,East,92,3.0,4.0,75,0.04,,,0.12,meteohub,2013-01-25 15:42:00,
2013-01-25 08:02:00,59.0,51.1,30.16,East,95,3.0,4.0,75,0.00,,,0.12,meteohub,2013-01-25 16:02:00,
2013-01-25 08:22:00,59.4,51.8,30.16,ESE,103,3.0,6.0,76,0.00,,,0.12,meteohub,2013-01-25 16:22:00,
2013-01-25 08:42:00,59.7,52.5,30.16,ENE,58,6.0,8.0,77,0.00,,,0.12,meteohub,2013-01-25 16:42:00,
2013-01-25 09:02:00,60.4,53.6,30.19,East,88,0.0,8.0,78,0.00,,,0.12,meteohub,2013-01-25 17:02:00,
2013-01-25 09:22:00,61.3,54.5,30.16,East,83,4.0,4.0,78,0.00,,,0.12,meteohub,2013-01-25 17:22:00,
2013-01-25 09:42:00,61.9,55.2,30.19,ENE,68,3.0,5.0,79,0.00,,,0.12,meteohub,2013-01-25 17:42:00,
2013-01-25 10:02:00,63.3,57.0,30.19,ENE,66,0.0,3.0,80,0.00,,,0.12,meteohub,2013-01-25 18:02:00,
2013-01-25 10:22:00,64.8,58.1,30.19,ENE,76,4.0,5.0,79,0.00,,,0.12,meteohub,2013-01-25 18:22:00,
2013-01-25 10:42:00,65.7,57.6,30.19,NE,55,5.0,6.0,75,0.00,,,0.12,meteohub,2013-01-25 18:42:00,
2013-01-25 11:02:00,65.5,51.3,30.19,North,357,3.0,5.0,60,0.00,,,0.12,meteohub,2013-01-25 19:02:00,
2013-01-25 11:22:00,65.7,41.9,30.19,NNE,33,3.0,5.0,42,0.00,,,0.12,meteohub,2013-01-25 19:22:00,
2013-01-25 11:42:00,66.2,41.2,30.16,NE,42,3.0,5.0,40,0.00,,,0.12,meteohub,2013-01-25 19:42:00,
2013-01-25 12:02:00,66.0,39.7,30.16,NNE,29,4.0,4.0,38,0.00,,,0.12,meteohub,2013-01-25 20:02:00,
2013-01-25 12:22:00,66.0,39.0,30.16,NNW,331,3.0,4.0,37,0.00,,,0.12,meteohub,2013-01-25 20:22:00,
2013-01-25 12:42:00,65.8,40.1,30.13,NNW,345,3.0,5.0,39,0.00,,,0.12,meteohub,2013-01-25 20:42:00,
2013-01-25 13:02:00,66.6,39.6,30.10,North,11,4.0,6.0,37,0.00,,,0.12,meteohub,2013-01-25 21:02:00,
2013-01-25 13:22:00,67.6,39.7,30.10,ENE,66,5.0,8.0,36,0.00,,,0.12,meteohub,2013-01-25 21:22:00,
2013-01-25 13:42:00,67.3,39.4,30.10,NE,48,0.0,5.0,36,0.00,,,0.12,meteohub,2013-01-25 21:42:00,
2013-01-25 14:02:00,67.1,39.2,30.10,ESE,111,0.0,2.0,36,0.00,,,0.12,meteohub,2013-01-25 22:02:00,
2013-01-25 14:22:00,65.3,40.3,30.10,SW,220,0.0,0.0,40,0.00,,,0.12,meteohub,2013-01-25 22:22:00,
2013-01-25 14:42:00,63.3,42.3,30.10,SW,232,4.0,6.0,46,0.00,,,0.12,meteohub,2013-01-25 22:42:00,
2013-01-25 15:02:00,61.7,42.8,30.10,SW,231,4.0,5.0,50,0.00,,,0.12,meteohub,2013-01-25 23:02:00,
2013-01-25 15:22:00,61.3,43.5,30.07,West,262,0.0,5.0,52,0.00,,,0.12,meteohub,2013-01-25 23:22:00,
2013-01-25 15:42:00,61.5,43.7,30.07,NNW,329,4.0,4.0,52,0.00,,,0.12,meteohub,2013-01-25 23:42:00,
2013-01-25 16:02:00,61.3,44.1,30.07,West,281,3.0,5.0,53,0.00,,,0.12,meteohub,2013-01-26 00:02:00,
2013-01-25 16:22:00,61.0,43.7,30.07,WNW,299,3.0,6.0,53,0.00,,,0.12,meteohub,2013-01-26 00:22:00,
2013-01-25 16:42:00,61.0,44.2,30.07,NW,316,4.0,4.0,54,0.00,,,0.12,meteohub,2013-01-26 00:42:00,
2013-01-25 17:02:00,61.0,44.2,30.04,NNW,332,3.0,6.0,54,0.00,,,0.12,meteohub,2013-01-26 01:02:00,
2013-01-25 17:22:00,61.0,44.8,30.07,West,268,3.0,4.0,55,0.00,,,0.12,meteohub,2013-01-26 01:22:00,
2013-01-25 17:42:00,60.8,45.0,30.07,WSW,255,3.0,4.0,56,0.00,,,0.12,meteohub,2013-01-26 01:42:00,
2013-01-25 18:02:00,60.6,45.7,30.07,WSW,258,4.0,6.0,58,0.00,,,0.12,meteohub,2013-01-26 02:02:00,
2013-01-25 18:22:00,60.6,46.2,30.07,West,276,3.0,8.0,59,0.04,,,0.17,meteohub,2013-01-26 02:22:00,
2013-01-25 18:42:00,59.7,46.2,30.07,West,274,3.0,7.0,61,0.04,,,0.17,meteohub,2013-01-26 02:42:00,
2013-01-25 19:02:00,59.7,47.1,30.07,West,273,3.0,6.0,63,0.04,,,0.17,meteohub,2013-01-26 03:02:00,
2013-01-25 19:22:00,59.7,48.0,30.07,WNW,283,3.0,6.0,65,0.00,,,0.17,meteohub,2013-01-26 03:22:00,
2013-01-25 19:42:00,59.5,48.2,30.07,North,8,0.0,4.0,66,0.00,,,0.17,meteohub,2013-01-26 03:42:00,
2013-01-25 20:02:00,59.7,49.1,30.04,North,353,0.0,0.0,68,0.00,,,0.17,meteohub,2013-01-26 04:02:00,
2013-01-25 20:22:00,59.7,49.5,30.04,NW,322,0.0,0.0,69,0.00,,,0.17,meteohub,2013-01-26 04:22:00,
2013-01-25 20:42:00,60.3,50.9,30.07,WNW,286,0.0,5.0,71,0.00,,,0.17,meteohub,2013-01-26 04:42:00,
2013-01-25 21:02:00,60.3,51.3,30.07,West,268,0.0,3.0,72,0.00,,,0.17,meteohub,2013-01-26 05:02:00,
2013-01-25 21:22:00,60.1,51.1,30.04,WSW,240,3.0,0.0,72,0.00,,,0.17,meteohub,2013-01-26 05:22:00,
2013-01-25 21:42:00,59.7,51.1,30.04,West,271,0.0,4.0,73,0.00,,,0.17,meteohub,2013-01-26 05:42:00,
2013-01-25 22:02:00,59.4,51.1,30.04,West,271,0.0,0.0,74,0.00,,,0.17,meteohub,2013-01-26 06:02:00,
2013-01-25 22:22:00,59.4,51.4,30.07,WSW,246,0.0,0.0,75,0.00,,,0.17,meteohub,2013-01-26 06:22:00,
2013-01-25 22:42:00,59.4,51.8,30.07,WSW,246,0.0,0.0,76,0.00,,,0.17,meteohub,2013-01-26 06:42:00,
2013-01-25 23:02:00,59.4,51.8,30.04,WSW,246,0.0,0.0,76,0.00,,,0.17,meteohub,2013-01-26 07:02:00,
2013-01-25 23:22:00,59.2,52.0,30.04,WSW,245,0.0,0.0,77,0.00,,,0.17,meteohub,2013-01-26 07:22:00,
2013-01-25 23:42:00,58.8,51.6,30.04,WSW,246,0.0,0.0,77,0.00,,,0.17,meteohub,2013-01-26 07:42:00,